Eureka, Alaska
Current Conditions -  °F | °C
As of 10:16 PM on Friday 19 Dec 2014 (Local Time) from PAZK Reporting Station
Overcast Overcast  
Wind Chill:   Ceiling: 400
Heat Index:   Visibility: 3mi
Dew Point:   Wind: 5mph
Humidity: 100%   Direction: 40°NE
Pressure: 29.08"   Gusts: NA
Location:  61.94°N, 147.17°W
Report Text: PAZK 200716Z 04004KT 3SM OVC004 M13/M13 A2908 RMK AO1
Loading
Personal Weather Stations






























Interactive Weather Map New forecast layout! Learn more

10-Day Weather Forecast

Advertisements
Track Severe Weather on mobile